Time;durP1;ratioP1;P1;durP2;ratioP2;P2;SDS_P1;SDS_P2;PMS_P1;PMS_P2;Temp;Humidity;BMP_temperature;BMP_pressure;BME280_temperature;BME280_humidity;BME280_pressure;Samples;Min_cycle;Max_cycle;Signal;HPM_P1;HPM_P2
2023/07/21 00:01:41;;;;;;;5.45;2.55;;;;;18.70;96008.00;;;;8252687;28;20233;-68
2023/07/21 00:05:45;;;;;;;3.50;2.50;;;;;18.70;96011.00;;;;8252960;28;20836;-67
2023/07/21 00:09:48;;;;;;;5.75;2.88;;;;;18.60;96000.00;;;;8252032;28;20289;-68
2023/07/21 00:13:59;;;;;;;3.38;2.60;;;;;18.50;95992.00;;;;8255212;28;20234;-68
2023/07/21 00:18:03;;;;;;;3.60;2.65;;;;;18.50;95988.00;;;;8253824;28;20294;-69
2023/07/21 00:22:08;;;;;;;3.55;2.70;;;;;18.50;95987.00;;;;8223259;28;20309;-69
2023/07/21 00:26:13;;;;;;;10.60;2.63;;;;;18.40;95967.00;;;;8252414;28;20298;-67
2023/07/21 00:30:19;;;;;;;3.30;2.65;;;;;18.40;95963.00;;;;8232834;28;20210;-69
2023/07/21 00:34:24;;;;;;;4.72;3.03;;;;;18.30;95960.00;;;;8246153;28;20320;-68
2023/07/21 00:38:27;;;;;;;4.22;2.63;;;;;18.20;95958.00;;;;8253827;28;20222;-68
2023/07/21 00:42:35;;;;;;;2.67;2.40;;;;;18.00;95960.00;;;;8252388;28;20230;-67
2023/07/21 00:46:41;;;;;;;4.60;2.65;;;;;17.80;95950.00;;;;8252839;28;20667;-68
2023/07/21 00:50:45;;;;;;;4.78;2.70;;;;;17.70;95942.00;;;;8248009;28;20294;-68
2023/07/21 00:54:49;;;;;;;6.65;2.70;;;;;17.40;95943.00;;;;8253681;28;20673;-68
2023/07/21 00:58:53;;;;;;;3.33;2.72;;;;;17.10;95938.00;;;;8247278;28;20217;-68
2023/07/21 01:03:02;;;;;;;4.53;2.47;;;;;17.00;95941.00;;;;8251563;28;20269;-68
2023/07/21 01:07:09;;;;;;;3.28;3.00;;;;;16.80;95940.00;;;;8246719;28;20206;-68
2023/07/21 01:11:14;;;;;;;5.32;2.53;;;;;16.50;95934.00;;;;8253061;28;20280;-68
2023/07/21 01:15:19;;;;;;;4.18;3.08;;;;;16.30;95927.00;;;;8250751;28;20253;-68
2023/07/21 01:19:37;;;;;;;2.63;2.42;;;;;16.20;95927.00;;;;8249547;28;20209;-68
2023/07/21 01:23:46;;;;;;;7.88;2.95;;;;;16.20;95916.00;;;;8251590;28;20657;-69
2023/07/21 01:27:52;;;;;;;4.70;3.10;;;;;16.20;95917.00;;;;8234753;28;20672;-68
2023/07/21 01:32:00;;;;;;;2.70;2.50;;;;;16.20;95917.00;;;;8252910;28;20203;-68
2023/07/21 01:36:06;;;;;;;4.30;2.90;;;;;16.10;95912.00;;;;8252879;28;20289;-68
2023/07/21 01:40:13;;;;;;;3.45;2.80;;;;;16.20;95913.00;;;;8237690;28;20560;-68
2023/07/21 01:44:22;;;;;;;3.88;2.30;;;;;16.30;95910.00;;;;8257738;28;20234;-67
2023/07/21 01:48:26;;;;;;;4.68;2.92;;;;;16.40;95912.00;;;;8254488;28;20267;-68
2023/07/21 01:52:31;;;;;;;2.90;2.70;;;;;16.50;95904.00;;;;8258796;28;20222;-68
2023/07/21 01:56:39;;;;;;;2.80;2.60;;;;;16.60;95900.00;;;;8258923;28;20206;-68
2023/07/21 02:00:47;;;;;;;4.60;3.15;;;;;16.60;95895.00;;;;8259467;28;20290;-68
2023/07/21 02:04:59;;;;;;;5.25;2.92;;;;;16.70;95893.00;;;;8256391;28;20262;-68
2023/07/21 02:09:05;;;;;;;6.38;3.22;;;;;16.70;95888.00;;;;8257744;28;20214;-67
2023/07/21 02:13:16;;;;;;;3.65;2.70;;;;;16.70;95886.00;;;;8257916;28;20659;-68
2023/07/21 02:17:24;;;;;;;4.13;3.03;;;;;16.60;95883.00;;;;8255289;28;20253;-68
2023/07/21 02:21:30;;;;;;;5.45;3.10;;;;;16.60;95875.00;;;;8258156;28;20242;-68
2023/07/21 02:25:35;;;;;;;2.90;2.60;;;;;16.40;95875.00;;;;8259448;28;20671;-67
2023/07/21 02:29:38;;;;;;;2.95;2.75;;;;;16.30;95876.00;;;;8255762;28;20908;-69
2023/07/21 02:33:43;;;;;;;5.32;2.95;;;;;16.30;95880.00;;;;8238904;28;20318;-68
2023/07/21 02:37:46;;;;;;;6.20;2.95;;;;;16.20;95874.00;;;;8240776;28;20211;-68
2023/07/21 02:41:50;;;;;;;3.72;3.08;;;;;16.00;95865.00;;;;8257397;28;20230;-67
2023/07/21 02:45:54;;;;;;;5.57;3.55;;;;;16.00;95867.00;;;;8254781;28;20715;-68
2023/07/21 02:49:59;;;;;;;3.20;2.85;;;;;15.90;95865.00;;;;8255040;28;20294;-68
2023/07/21 02:54:06;;;;;;;5.18;3.50;;;;;15.90;95870.00;;;;8254646;28;20215;-68
2023/07/21 02:58:16;;;;;;;4.95;3.25;;;;;15.90;95860.00;;;;8253280;28;20199;-67
2023/07/21 03:02:22;;;;;;;5.75;3.10;;;;;15.90;95865.00;;;;8278664;23;20234;-68
2023/07/21 03:06:30;;;;;;;4.90;2.90;;;;;16.00;95854.00;;;;8249780;28;20656;-68
2023/07/21 03:10:37;;;;;;;3.90;3.03;;;;;16.10;95858.00;;;;8254384;28;20651;-68
2023/07/21 03:14:40;;;;;;;3.75;3.20;;;;;16.10;95854.00;;;;8251427;28;20210;-68
2023/07/21 03:18:43;;;;;;;4.45;3.08;;;;;16.10;95857.00;;;;8253890;28;20290;-68
2023/07/21 03:22:48;;;;;;;4.80;2.97;;;;;16.20;95862.00;;;;8256094;28;20302;-68
2023/07/21 03:26:52;;;;;;;3.72;3.38;;;;;16.30;95857.00;;;;8255654;28;20199;-67
2023/07/21 03:30:59;;;;;;;3.75;3.28;;;;;16.60;95854.00;;;;8247519;28;20294;-67
2023/07/21 03:35:15;;;;;;;3.72;3.00;;;;;16.80;95855.00;;;;8255045;28;20210;-68
2023/07/21 03:39:20;;;;;;;6.30;2.80;;;;;16.80;95856.00;;;;8247800;28;20238;-67
2023/07/21 03:43:25;;;;;;;7.22;5.57;;;;;16.70;95855.00;;;;8233595;28;20231;-68
2023/07/21 03:47:30;;;;;;;6.50;3.42;;;;;16.70;95852.00;;;;8251993;28;20306;-68
2023/07/21 03:51:39;;;;;;;3.53;3.00;;;;;16.60;95849.00;;;;8254610;28;20395;-68
2023/07/21 03:55:45;;;;;;;5.80;2.97;;;;;16.50;95840.00;;;;8252792;28;20195;-68
2023/07/21 03:59:50;;;;;;;3.85;3.40;;;;;16.40;95843.00;;;;8252853;28;20298;-68
2023/07/21 04:03:54;;;;;;;6.13;3.15;;;;;16.40;95842.00;;;;8253386;28;20238;-68
2023/07/21 04:08:00;;;;;;;4.13;3.47;;;;;16.30;95836.00;;;;8250333;28;20249;-68
2023/07/21 04:12:06;;;;;;;7.22;3.60;;;;;16.40;95846.00;;;;8250945;28;20306;-68
2023/07/21 04:16:11;;;;;;;4.93;3.72;;;;;16.60;95839.00;;;;8250936;28;20199;-70
2023/07/21 04:20:16;;;;;;;5.88;3.58;;;;;16.60;95853.00;;;;8250734;28;20597;-68
2023/07/21 04:24:20;;;;;;;5.32;3.58;;;;;16.60;95860.00;;;;8248393;28;20821;-68
2023/07/21 04:28:26;;;;;;;9.48;4.13;;;;;16.60;95859.00;;;;8255050;28;20211;-68
2023/07/21 04:32:37;;;;;;;7.20;4.35;;;;;16.70;95858.00;;;;8251176;28;20199;-67
2023/07/21 04:36:41;;;;;;;9.98;4.25;;;;;16.80;95857.00;;;;8252683;28;20246;-67
2023/07/21 04:40:45;;;;;;;8.30;4.18;;;;;16.90;95860.00;;;;8251644;28;20207;-67
2023/07/21 04:44:51;;;;;;;12.70;4.80;;;;;17.00;95853.00;;;;8253640;28;20731;-66
2023/07/21 04:48:58;;;;;;;12.68;3.92;;;;;17.10;95862.00;;;;8250663;28;20211;-68
2023/07/21 04:53:03;;;;;;;6.50;3.88;;;;;17.30;95856.00;;;;8247672;28;20241;-67
2023/07/21 04:57:07;;;;;;;4.82;3.80;;;;;17.40;95859.00;;;;8253857;28;20458;-68
2023/07/21 05:01:15;;;;;;;6.35;4.22;;;;;17.60;95861.00;;;;8252210;28;20219;-69
2023/07/21 05:05:21;;;;;;;7.18;3.83;;;;;17.80;95860.00;;;;8247715;28;20249;-68
2023/07/21 05:09:29;;;;;;;9.73;3.70;;;;;17.90;95862.00;;;;8244187;28;20207;-68
2023/07/21 05:13:32;;;;;;;11.15;3.75;;;;;17.80;95864.00;;;;8253575;28;20288;-67
2023/07/21 05:17:37;;;;;;;6.22;3.60;;;;;17.90;95855.00;;;;8231006;28;20214;-66
2023/07/21 05:21:44;;;;;;;7.78;3.50;;;;;18.00;95852.00;;;;8250916;28;20253;-68
2023/07/21 05:25:47;;;;;;;6.32;3.78;;;;;18.10;95860.00;;;;8249253;28;20277;-67
2023/07/21 05:29:51;;;;;;;4.20;3.30;;;;;18.20;95863.00;;;;8219352;28;20315;-67
2023/07/21 05:33:56;;;;;;;6.38;3.53;;;;;18.40;95850.00;;;;8215425;28;20238;-66
2023/07/21 05:37:59;;;;;;;4.75;3.50;;;;;18.60;95842.00;;;;8219079;28;20203;-67
2023/07/21 05:42:10;;;;;;;5.70;3.83;;;;;18.90;95835.00;;;;8217591;28;20641;-67
2023/07/21 05:46:15;;;;;;;5.75;3.42;;;;;19.20;95842.00;;;;8214164;28;20242;-67
2023/07/21 05:50:22;;;;;;;6.45;3.50;;;;;19.60;95836.00;;;;8214019;28;20219;-67
2023/07/21 05:54:26;;;;;;;6.25;3.10;;;;;20.00;95836.00;;;;8218077;28;20753;-67
2023/07/21 05:58:29;;;;;;;3.20;2.83;;;;;20.30;95829.00;;;;8218550;28;20259;-67
2023/07/21 06:02:34;;;;;;;4.85;2.92;;;;;20.50;95825.00;;;;8211531;28;20325;-67
2023/07/21 06:06:39;;;;;;;3.03;2.72;;;;;20.40;95825.00;;;;8207452;28;20243;-66
2023/07/21 06:10:43;;;;;;;3.45;2.80;;;;;20.30;95836.00;;;;8211407;28;20290;-66
2023/07/21 06:14:46;;;;;;;3.67;3.33;;;;;20.20;95834.00;;;;8216262;28;20287;-65
2023/07/21 06:18:50;;;;;;;6.10;3.13;;;;;20.30;95836.00;;;;8213257;28;20247;-66
2023/07/21 06:22:57;;;;;;;2.72;2.53;;;;;20.70;95838.00;;;;8219457;28;20234;-66
2023/07/21 06:27:00;;;;;;;3.42;2.60;;;;;21.20;95845.00;;;;8223005;28;20227;-65
2023/07/21 06:31:07;;;;;;;3.95;2.97;;;;;21.90;95828.00;;;;8224754;28;20211;-65
2023/07/21 06:35:12;;;;;;;3.30;2.67;;;;;22.20;95830.00;;;;8218187;28;20204;-66
2023/07/21 06:39:19;;;;;;;3.47;2.38;;;;;22.40;95809.00;;;;8220900;28;20299;-65
2023/07/21 06:43:22;;;;;;;7.38;2.70;;;;;22.60;95814.00;;;;8191837;28;20235;-66
2023/07/21 06:47:27;;;;;;;5.57;2.42;;;;;23.00;95815.00;;;;8220997;28;20239;-68
2023/07/21 06:51:33;;;;;;;2.90;2.55;;;;;24.00;95814.00;;;;8216758;28;20211;-66
2023/07/21 06:55:37;;;;;;;4.55;2.72;;;;;24.70;95806.00;;;;8219487;28;20241;-67
2023/07/21 06:59:43;;;;;;;3.08;2.50;;;;;25.50;95804.00;;;;8213888;28;20303;-67
2023/07/21 07:03:55;;;;;;;3.90;2.75;;;;;26.30;95808.00;;;;8215718;28;20223;-66
2023/07/21 07:07:59;;;;;;;4.40;2.42;;;;;26.90;95805.00;;;;8211882;28;20211;-67
2023/07/21 07:12:07;;;;;;;5.38;2.30;;;;;27.30;95798.00;;;;8208813;28;20645;-68
2023/07/21 07:16:15;;;;;;;2.95;2.75;;;;;27.80;95804.00;;;;8203726;28;20422;-68
2023/07/21 07:20:20;;;;;;;7.70;2.88;;;;;28.00;95796.00;;;;8213857;28;20211;-68
2023/07/21 07:24:23;;;;;;;4.05;2.58;;;;;28.40;95795.00;;;;8207030;28;20713;-67
2023/07/21 07:28:30;;;;;;;2.72;2.53;;;;;28.90;95798.00;;;;8210066;28;20734;-68
2023/07/21 07:32:34;;;;;;;2.65;2.45;;;;;28.90;95804.00;;;;8215347;28;20256;-66
2023/07/21 07:36:39;;;;;;;2.42;2.33;;;;;29.20;95808.00;;;;8216051;28;20732;-68
2023/07/21 07:40:44;;;;;;;4.00;2.80;;;;;28.90;95803.00;;;;8208893;28;20218;-67
2023/07/21 07:44:49;;;;;;;3.90;2.80;;;;;29.30;95799.00;;;;8212544;28;20318;-66
2023/07/21 07:48:55;;;;;;;5.97;2.90;;;;;29.80;95801.00;;;;8194396;28;20641;-65
2023/07/21 07:52:59;;;;;;;5.93;3.08;;;;;30.10;95801.00;;;;8210657;28;20207;-66
2023/07/21 07:57:03;;;;;;;6.25;3.03;;;;;30.10;95796.00;;;;8204798;28;20751;-66
2023/07/21 08:01:12;;;;;;;3.35;2.88;;;;;30.40;95803.00;;;;8208689;28;20302;-67
2023/07/21 08:05:16;;;;;;;7.88;3.55;;;;;30.60;95801.00;;;;8210793;28;20291;-66
2023/07/21 08:09:22;;;;;;;12.20;3.38;;;;;31.00;95802.00;;;;8211978;28;20219;-65
2023/07/21 08:13:25;;;;;;;5.28;2.80;;;;;31.30;95802.00;;;;8214670;28;20211;-65
2023/07/21 08:17:29;;;;;;;2.60;2.38;;;;;32.00;95803.00;;;;8214459;28;20629;-65
2023/07/21 08:21:33;;;;;;;5.53;2.63;;;;;32.60;95811.00;;;;8218945;28;20597;-63
2023/07/21 08:25:36;;;;;;;5.47;2.97;;;;;33.00;95810.00;;;;8214107;28;20264;-64
2023/07/21 08:30:10;;;;;;;6.20;2.88;;;;;33.30;95805.00;;;;8220635;28;20290;-64
2023/07/21 08:34:16;;;;;;;2.78;2.58;;;;;33.80;95812.00;;;;8209946;28;20247;-63
2023/07/21 08:38:19;;;;;;;3.97;2.55;;;;;34.70;95819.00;;;;8211751;28;20576;-64
2023/07/21 08:42:27;;;;;;;7.18;2.30;;;;;34.60;95819.00;;;;8213261;28;20299;-64
2023/07/21 08:46:35;;;;;;;4.63;2.17;;;;;34.40;95818.00;;;;8216487;28;20230;-64
2023/07/21 08:50:43;;;;;;;2.53;2.30;;;;;34.80;95819.00;;;;8213619;28;20446;-64
2023/07/21 08:54:48;;;;;;;3.75;2.60;;;;;34.10;95827.00;;;;8205474;28;20239;-64
2023/07/21 08:58:51;;;;;;;3.55;2.50;;;;;33.10;95844.00;;;;8214252;28;20208;-64
2023/07/21 09:02:59;;;;;;;3.92;2.25;;;;;32.10;95840.00;;;;8206401;28;20310;-64
2023/07/21 09:07:05;;;;;;;6.78;2.70;;;;;31.50;95835.00;;;;8205619;28;20697;-67
2023/07/21 09:11:12;;;;;;;3.40;2.58;;;;;31.00;95838.00;;;;8220466;28;20239;-65
2023/07/21 09:15:15;;;;;;;5.95;3.00;;;;;30.80;95843.00;;;;8217008;28;20202;-66
2023/07/21 09:19:21;;;;;;;4.25;2.50;;;;;30.60;95844.00;;;;8218561;28;20214;-66
2023/07/21 09:23:26;;;;;;;3.85;2.30;;;;;30.40;95833.00;;;;8205088;28;20679;-65
2023/07/21 09:27:38;;;;;;;2.80;2.60;;;;;30.60;95828.00;;;;8206127;28;20272;-64
2023/07/21 09:31:44;;;;;;;2.38;2.13;;;;;30.90;95828.00;;;;8215144;28;20247;-69
2023/07/21 09:35:47;;;;;;;2.95;2.35;;;;;32.00;95827.00;;;;8210245;28;20265;-63
2023/07/21 09:39:56;;;;;;;2.85;2.45;;;;;31.60;95823.00;;;;8210370;28;20222;-65
2023/07/21 09:44:02;;;;;;;6.38;2.42;;;;;31.00;95828.00;;;;8213399;28;20255;-64
2023/07/21 09:48:06;;;;;;;4.03;2.20;;;;;30.80;95822.00;;;;8218876;28;20282;-65
2023/07/21 09:52:11;;;;;;;6.18;2.33;;;;;32.40;95821.00;;;;8217196;28;20204;-66
2023/07/21 09:56:20;;;;;;;4.97;2.55;;;;;33.50;95816.00;;;;8215594;28;20227;-65
2023/07/21 10:00:28;;;;;;;2.58;2.38;;;;;34.30;95810.00;;;;8214653;28;20204;-65
2023/07/21 10:04:32;;;;;;;2.97;2.10;;;;;34.90;95810.00;;;;8208354;28;20239;-65
2023/07/21 10:08:36;;;;;;;4.28;2.63;;;;;34.60;95817.00;;;;8217666;28;20286;-65
2023/07/21 10:12:49;;;;;;;5.43;2.00;;;;;33.10;95802.00;;;;8226008;28;20269;-65
2023/07/21 10:16:52;;;;;;;3.42;2.58;;;;;32.00;95795.00;;;;8225121;28;20245;-65
2023/07/21 10:20:57;;;;;;;2.40;2.20;;;;;31.80;95792.00;;;;8225116;28;20214;-65
2023/07/21 10:25:02;;;;;;;8.55;2.33;;;;;33.10;95786.00;;;;8211709;28;20319;-66
2023/07/21 10:29:16;;;;;;;3.55;2.15;;;;;34.70;95783.00;;;;8217239;28;20199;-67
2023/07/21 10:33:21;;;;;;;3.67;2.50;;;;;35.50;95780.00;;;;8213781;28;20449;-66
2023/07/21 10:37:26;;;;;;;3.08;1.85;;;;;36.10;95781.00;;;;8198987;28;20238;-64
2023/07/21 10:41:29;;;;;;;4.05;2.00;;;;;36.40;95784.00;;;;8213483;28;20232;-64
2023/07/21 10:45:35;;;;;;;2.30;2.00;;;;;36.50;95782.00;;;;8214845;28;20322;-65
2023/07/21 10:49:39;;;;;;;4.13;1.75;;;;;36.00;95780.00;;;;8216494;28;20203;-65
2023/07/21 10:53:42;;;;;;;2.05;1.92;;;;;35.40;95777.00;;;;8221397;28;20308;-67
2023/07/21 10:57:45;;;;;;;3.17;2.00;;;;;35.30;95785.00;;;;8214553;28;20203;-65
2023/07/21 11:01:53;;;;;;;2.28;2.00;;;;;35.90;95783.00;;;;8216733;28;20238;-66
2023/07/21 11:06:00;;;;;;;4.93;1.95;;;;;35.70;95784.00;;;;8214581;28;20286;-65
2023/07/21 11:10:04;;;;;;;3.92;1.73;;;;;34.90;95776.00;;;;8221472;28;20239;-68
2023/07/21 11:14:11;;;;;;;2.63;2.00;;;;;34.70;95771.00;;;;8222003;28;20211;-65
2023/07/21 11:18:15;;;;;;;3.10;1.98;;;;;35.30;95774.00;;;;8204105;28;20666;-66
2023/07/21 11:22:19;;;;;;;4.13;2.20;;;;;35.40;95760.00;;;;8221028;28;20661;-67
2023/07/21 11:26:23;;;;;;;2.40;2.10;;;;;36.40;95744.00;;;;8188664;28;20238;-66
2023/07/21 11:30:27;;;;;;;9.40;2.35;;;;;36.30;95751.00;;;;8215238;28;20231;-65
2023/07/21 11:34:31;;;;;;;3.55;1.77;;;;;36.10;95751.00;;;;8219660;28;20977;-65
2023/07/21 11:38:40;;;;;;;2.03;1.60;;;;;37.10;95737.00;;;;8212164;28;20314;-65
2023/07/21 11:42:46;;;;;;;4.13;1.70;;;;;37.40;95738.00;;;;8212619;28;20223;-65
2023/07/21 11:46:55;;;;;;;5.20;1.80;;;;;37.40;95736.00;;;;8206160;28;20231;-66
2023/07/21 11:51:00;;;;;;;2.50;2.30;;;;;37.10;95741.00;;;;8195969;28;21063;-66
2023/07/21 11:55:04;;;;;;;4.90;2.05;;;;;35.40;95752.00;;;;8211727;28;20211;-66
2023/07/21 11:59:07;;;;;;;2.72;1.77;;;;;35.10;95735.00;;;;8210484;28;20310;-66
2023/07/21 12:03:11;;;;;;;1.90;1.80;;;;;35.40;95733.00;;;;8214301;28;20323;-67
2023/07/21 12:07:17;;;;;;;2.05;1.73;;;;;35.70;95733.00;;;;8203959;28;20294;-65
2023/07/21 12:11:26;;;;;;;2.90;1.80;;;;;36.30;95745.00;;;;8204961;28;20216;-65
2023/07/21 12:15:31;;;;;;;1.63;1.52;;;;;35.50;95739.00;;;;8204053;28;20203;-65
2023/07/21 12:19:35;;;;;;;5.18;2.00;;;;;34.60;95741.00;;;;8206040;28;20214;-65
2023/07/21 12:23:39;;;;;;;2.72;1.83;;;;;33.50;95740.00;;;;8208436;28;20234;-66
2023/07/21 12:27:43;;;;;;;1.80;1.70;;;;;33.00;95735.00;;;;8203411;28;20322;-67
2023/07/21 12:31:48;;;;;;;28.80;3.10;;;;;33.30;95732.00;;;;8211893;28;20291;-66
2023/07/21 12:35:53;;;;;;;1.90;1.77;;;;;32.70;95737.00;;;;8217202;28;20211;-66
2023/07/21 12:40:01;;;;;;;2.05;1.80;;;;;31.60;95717.00;;;;8211805;28;20234;-66
2023/07/21 12:44:06;;;;;;;2.10;1.98;;;;;31.90;95728.00;;;;8209316;28;20196;-64
2023/07/21 12:48:17;;;;;;;2.60;2.08;;;;;32.20;95718.00;;;;8213995;28;20245;-66
2023/07/21 12:52:24;;;;;;;2.00;1.90;;;;;32.30;95722.00;;;;8204560;28;20238;-65
2023/07/21 12:56:29;;;;;;;4.18;1.90;;;;;32.10;95720.00;;;;8183361;28;20326;-66
2023/07/21 13:00:38;;;;;;;1.77;1.67;;;;;31.50;95709.00;;;;8208558;28;20232;-66
2023/07/21 13:04:42;;;;;;;3.95;1.80;;;;;31.00;95714.00;;;;8211497;28;20281;-67
2023/07/21 13:08:45;;;;;;;4.70;2.00;;;;;30.70;95705.00;;;;8216008;28;20235;-66
2023/07/21 13:12:50;;;;;;;3.65;1.73;;;;;30.70;95705.00;;;;8200133;28;20291;-67
2023/07/21 13:16:57;;;;;;;3.22;2.00;;;;;30.60;95716.00;;;;8214723;28;20242;-71
2023/07/21 13:21:05;;;;;;;5.82;2.05;;;;;30.60;95719.00;;;;8212364;28;20242;-67
2023/07/21 13:25:10;;;;;;;1.88;1.77;;;;;30.70;95714.00;;;;8209228;28;20214;-67
2023/07/21 13:29:14;;;;;;;1.80;1.70;;;;;31.30;95714.00;;;;8213167;28;20223;-67
2023/07/21 13:33:19;;;;;;;2.13;1.63;;;;;31.60;95685.00;;;;8211362;28;20211;-67
2023/07/21 13:37:24;;;;;;;1.70;1.60;;;;;31.70;95687.00;;;;8210933;28;20211;-67
2023/07/21 13:41:27;;;;;;;1.92;1.83;;;;;32.10;95696.00;;;;8224695;28;20298;-67
2023/07/21 13:45:32;;;;;;;4.97;1.70;;;;;33.10;95692.00;;;;8203151;28;20211;-67
2023/07/21 13:49:50;;;;;;;2.55;1.67;;;;;33.30;95704.00;;;;8212700;28;20283;-67
2023/07/21 13:53:53;;;;;;;2.10;1.80;;;;;33.70;95692.00;;;;8219294;28;20208;-68
2023/07/21 13:57:56;;;;;;;2.78;1.90;;;;;33.80;95695.00;;;;8218722;28;20199;-71
2023/07/21 14:02:00;;;;;;;7.68;2.38;;;;;33.80;95695.00;;;;8212516;28;20231;-68
2023/07/21 14:06:05;;;;;;;3.38;1.63;;;;;33.90;95697.00;;;;8206216;28;20289;-68
2023/07/21 14:10:10;;;;;;;1.85;1.75;;;;;33.90;95700.00;;;;8210684;28;20989;-68
2023/07/21 14:14:13;;;;;;;2.35;2.00;;;;;33.20;95701.00;;;;8214175;28;20294;-68
2023/07/21 14:18:17;;;;;;;4.03;2.00;;;;;33.00;95698.00;;;;8222346;28;20208;-68
2023/07/21 14:22:22;;;;;;;7.82;2.05;;;;;33.20;95696.00;;;;8214587;28;20609;-67
2023/07/21 14:26:27;;;;;;;1.90;1.80;;;;;32.20;95691.00;;;;8212096;28;20684;-67
2023/07/21 14:30:32;;;;;;;3.67;1.98;;;;;31.20;95714.00;;;;8220879;28;20199;-67
2023/07/21 14:34:37;;;;;;;2.80;1.90;;;;;30.60;95704.00;;;;8221396;28;20246;-66
2023/07/21 14:38:40;;;;;;;2.22;2.00;;;;;30.30;95698.00;;;;8203750;28;20230;-67
2023/07/21 14:42:47;;;;;;;2.03;1.80;;;;;30.00;95695.00;;;;8224372;28;20283;-67
2023/07/21 14:46:52;;;;;;;2.25;2.05;;;;;29.60;95700.00;;;;8217547;28;20328;-66
2023/07/21 14:50:57;;;;;;;1.98;1.75;;;;;29.70;95698.00;;;;8218519;28;20203;-66
2023/07/21 14:55:08;;;;;;;2.78;1.95;;;;;29.60;95700.00;;;;8221387;28;20204;-66
2023/07/21 14:59:16;;;;;;;3.20;2.10;;;;;29.70;95703.00;;;;8216193;28;20210;-67
2023/07/21 15:03:26;;;;;;;2.78;1.92;;;;;29.90;95697.00;;;;8222148;28;20724;-66
2023/07/21 15:07:31;;;;;;;2.17;1.80;;;;;30.20;95699.00;;;;8216053;28;20258;-67
2023/07/21 15:11:35;;;;;;;5.40;2.63;;;;;30.00;95701.00;;;;8208135;28;20266;-67
2023/07/21 15:15:38;;;;;;;2.10;1.90;;;;;29.90;95706.00;;;;8213607;28;20302;-67
2023/07/21 15:19:42;;;;;;;4.03;2.08;;;;;29.80;95706.00;;;;8219429;28;20204;-67
2023/07/21 15:23:49;;;;;;;1.95;1.85;;;;;29.70;95705.00;;;;8219777;28;20299;-67
2023/07/21 15:27:53;;;;;;;3.50;1.85;;;;;29.60;95706.00;;;;8216673;28;20311;-67
2023/07/21 15:31:56;;;;;;;2.30;2.10;;;;;29.70;95714.00;;;;8211262;28;20207;-67
2023/07/21 15:36:02;;;;;;;4.15;1.90;;;;;30.30;95715.00;;;;8213104;28;20258;-66
2023/07/21 15:40:11;;;;;;;6.07;2.40;;;;;30.60;95716.00;;;;8221816;28;20196;-67
2023/07/21 15:44:15;;;;;;;2.40;1.88;;;;;30.90;95722.00;;;;8214264;28;20211;-67
2023/07/21 15:48:21;;;;;;;2.08;1.90;;;;;30.80;95730.00;;;;8214811;28;20236;-67
2023/07/21 15:52:24;;;;;;;2.60;2.00;;;;;30.50;95741.00;;;;8208418;28;20302;-67
2023/07/21 15:56:29;;;;;;;3.05;2.30;;;;;30.40;95728.00;;;;8196489;28;20311;-67
2023/07/21 16:00:35;;;;;;;2.78;2.17;;;;;30.50;95740.00;;;;8209875;28;20196;-67
2023/07/21 16:04:46;;;;;;;4.05;2.00;;;;;30.70;95738.00;;;;8208763;28;20347;-66
2023/07/21 16:08:54;;;;;;;3.67;2.33;;;;;30.20;95751.00;;;;8217293;28;20228;-67
2023/07/21 16:12:58;;;;;;;2.47;1.90;;;;;29.80;95751.00;;;;8217984;28;20227;-67
2023/07/21 16:17:01;;;;;;;2.20;1.98;;;;;29.60;95762.00;;;;8214606;28;20357;-67
2023/07/21 16:21:23;;;;;;;5.68;2.17;;;;;29.50;95760.00;;;;8212537;28;20203;-67
2023/07/21 16:25:30;;;;;;;2.83;1.95;;;;;29.20;95770.00;;;;8211674;28;20203;-64
2023/07/21 16:29:36;;;;;;;2.20;2.10;;;;;28.90;95774.00;;;;8212494;28;20231;-64
2023/07/21 16:33:39;;;;;;;3.20;1.70;;;;;28.60;95785.00;;;;8211057;28;20218;-64
2023/07/21 16:37:44;;;;;;;1.98;1.88;;;;;28.30;95788.00;;;;8212622;28;20215;-64
2023/07/21 16:41:48;;;;;;;6.28;2.03;;;;;28.10;95794.00;;;;8218198;28;20286;-64
2023/07/21 16:45:56;;;;;;;2.17;2.00;;;;;27.90;95782.00;;;;8212171;28;20377;-64
2023/07/21 16:50:00;;;;;;;3.55;1.90;;;;;27.80;95791.00;;;;8205071;28;21139;-63
2023/07/21 16:54:06;;;;;;;3.90;2.05;;;;;27.60;95801.00;;;;8204437;28;20208;-63
2023/07/21 16:58:12;;;;;;;5.65;2.55;;;;;27.30;95811.00;;;;8207309;28;20569;-63
2023/07/21 17:02:16;;;;;;;3.40;2.20;;;;;26.90;95812.00;;;;8200448;28;20259;-63
2023/07/21 17:06:19;;;;;;;2.90;1.90;;;;;26.60;95842.00;;;;8206726;28;20697;-63
2023/07/21 17:10:22;;;;;;;4.55;2.05;;;;;26.10;95831.00;;;;8203773;28;20237;-63
2023/07/21 17:14:26;;;;;;;3.15;1.90;;;;;25.70;95839.00;;;;8203738;28;20203;-63
2023/07/21 17:18:31;;;;;;;4.50;2.20;;;;;25.50;95835.00;;;;8203178;28;20258;-63
2023/07/21 17:22:36;;;;;;;3.15;2.17;;;;;25.30;95854.00;;;;8204540;28;20968;-63
2023/07/21 17:26:41;;;;;;;4.13;2.47;;;;;25.10;95863.00;;;;8200460;28;20294;-63
2023/07/21 17:30:46;;;;;;;5.72;2.70;;;;;24.90;95884.00;;;;8199801;28;20679;-63
2023/07/21 17:34:50;;;;;;;10.80;2.85;;;;;24.50;95912.00;;;;8202260;28;20290;-63
2023/07/21 17:38:58;;;;;;;9.27;2.42;;;;;24.20;95919.00;;;;8200216;28;20297;-63
2023/07/21 17:43:03;;;;;;;5.22;2.00;;;;;23.90;95916.00;;;;8204324;28;20203;-63
2023/07/21 17:47:06;;;;;;;7.72;2.60;;;;;23.50;95928.00;;;;8202716;28;20216;-63
2023/07/21 17:51:11;;;;;;;8.20;2.67;;;;;23.20;95928.00;;;;8194088;28;20203;-63
2023/07/21 17:55:27;;;;;;;4.25;2.60;;;;;22.80;95933.00;;;;8200339;28;20207;-63
2023/07/21 17:59:30;;;;;;;7.35;3.05;;;;;22.60;95947.00;;;;8200727;28;20327;-63
2023/07/21 18:03:34;;;;;;;4.82;2.45;;;;;22.40;95945.00;;;;8199234;28;20754;-63
2023/07/21 18:07:48;;;;;;;4.88;2.17;;;;;22.10;95974.00;;;;8199521;28;20243;-66
2023/07/21 18:11:52;;;;;;;5.03;2.22;;;;;21.80;95987.00;;;;8195775;28;20203;-62
2023/07/21 18:15:58;;;;;;;3.92;2.30;;;;;21.40;96002.00;;;;8205510;28;20428;-62
2023/07/21 18:20:02;;;;;;;2.75;2.15;;;;;21.00;95992.00;;;;8200735;28;20247;-62
2023/07/21 18:24:07;;;;;;;2.72;1.92;;;;;20.80;95986.00;;;;8176488;28;20306;-62
2023/07/21 18:28:10;;;;;;;3.72;2.13;;;;;20.60;95992.00;;;;8205143;28;20234;-62
2023/07/21 18:32:16;;;;;;;2.85;2.00;;;;;20.40;95988.00;;;;8197750;28;20215;-63
2023/07/21 18:36:19;;;;;;;3.60;2.40;;;;;20.30;96004.00;;;;8209123;28;21855;-63
2023/07/21 18:40:24;;;;;;;6.55;2.53;;;;;20.20;96026.00;;;;8211221;28;20651;-63
2023/07/21 18:44:27;;;;;;;2.10;1.90;;;;;20.00;96027.00;;;;8181755;28;20288;-63
2023/07/21 18:48:31;;;;;;;2.97;2.53;;;;;19.60;96015.00;;;;8206796;28;20241;-62
2023/07/21 18:52:34;;;;;;;3.78;2.30;;;;;19.40;96016.00;;;;8205683;28;20261;-63
2023/07/21 18:56:41;;;;;;;2.65;2.45;;;;;19.00;96012.00;;;;8174003;28;20207;-63
2023/07/21 19:00:47;;;;;;;2.40;2.20;;;;;18.70;96035.00;;;;8202888;28;20207;-63
2023/07/21 19:04:50;;;;;;;3.55;2.50;;;;;18.70;96028.00;;;;8204293;28;20239;-63
2023/07/21 19:08:53;;;;;;;2.60;2.40;;;;;18.80;96022.00;;;;8193616;28;20227;-63
2023/07/21 19:12:58;;;;;;;3.85;2.13;;;;;18.90;96025.00;;;;8211309;28;20235;-64
2023/07/21 19:17:05;;;;;;;3.05;2.50;;;;;18.90;96035.00;;;;8210705;28;20298;-66
2023/07/21 19:21:09;;;;;;;7.30;2.38;;;;;18.80;96046.00;;;;8207181;28;20289;-64
2023/07/21 19:25:13;;;;;;;4.10;2.60;;;;;18.90;96044.00;;;;8203513;28;20204;-65
2023/07/21 19:29:20;;;;;;;3.20;2.08;;;;;18.90;96051.00;;;;8215906;28;20747;-65
2023/07/21 19:33:31;;;;;;;2.47;2.30;;;;;18.90;96055.00;;;;8214576;28;20206;-66
2023/07/21 19:37:36;;;;;;;2.83;2.45;;;;;18.90;96072.00;;;;8219793;28;20270;-65
2023/07/21 19:41:41;;;;;;;5.18;2.38;;;;;18.80;96083.00;;;;8207595;28;20199;-65
2023/07/21 19:45:46;;;;;;;4.03;2.67;;;;;18.80;96094.00;;;;8213233;28;20200;-66
2023/07/21 19:49:51;;;;;;;3.22;2.92;;;;;18.70;96101.00;;;;8195997;28;20326;-65
2023/07/21 19:53:58;;;;;;;3.95;3.00;;;;;18.70;96109.00;;;;8218284;28;20239;-65
2023/07/21 19:58:01;;;;;;;4.07;3.30;;;;;18.60;96110.00;;;;8216710;28;20813;-65
2023/07/21 20:02:08;;;;;;;4.63;2.90;;;;;18.40;96114.00;;;;8216690;28;20305;-66
2023/07/21 20:06:11;;;;;;;3.80;3.05;;;;;18.40;96118.00;;;;8219377;28;20661;-65
2023/07/21 20:10:14;;;;;;;4.90;3.13;;;;;18.50;96129.00;;;;8217750;28;20247;-65
2023/07/21 20:14:20;;;;;;;4.65;3.30;;;;;18.50;96137.00;;;;8214853;28;20215;-66
2023/07/21 20:18:26;;;;;;;5.68;3.17;;;;;18.50;96150.00;;;;8203796;28;20265;-65
2023/07/21 20:22:30;;;;;;;6.85;3.30;;;;;18.50;96141.00;;;;8215862;28;20203;-66
2023/07/21 20:26:34;;;;;;;5.18;4.07;;;;;18.40;96136.00;;;;8211610;28;20299;-66
2023/07/21 20:30:40;;;;;;;6.35;3.80;;;;;18.20;96148.00;;;;8213876;28;20330;-66